sensor_id;sensor_type;location;lat;lon;timestamp;P1;durP1;ratioP1;P2;durP2;ratioP2
8161;SDS011;16778;48.154;15.094;2023-03-31T00:00:05;4.47;;;3.10;;
8161;SDS011;16778;48.154;15.094;2023-03-31T00:02:36;5.80;;;3.90;;
8161;SDS011;16778;48.154;15.094;2023-03-31T00:05:05;9.67;;;3.20;;
8161;SDS011;16778;48.154;15.094;2023-03-31T00:07:32;3.20;;;2.40;;
8161;SDS011;16778;48.154;15.094;2023-03-31T00:10:02;6.50;;;2.40;;
8161;SDS011;16778;48.154;15.094;2023-03-31T00:12:29;3.60;;;1.70;;
8161;SDS011;16778;48.154;15.094;2023-03-31T00:14:55;2.73;;;1.40;;
8161;SDS011;16778;48.154;15.094;2023-03-31T00:17:20;3.80;;;1.30;;
8161;SDS011;16778;48.154;15.094;2023-03-31T00:19:46;3.20;;;1.40;;
8161;SDS011;16778;48.154;15.094;2023-03-31T00:22:14;1.70;;;1.20;;
8161;SDS011;16778;48.154;15.094;2023-03-31T00:24:43;1.30;;;1.10;;
8161;SDS011;16778;48.154;15.094;2023-03-31T00:27:09;2.93;;;1.63;;
8161;SDS011;16778;48.154;15.094;2023-03-31T00:29:35;3.33;;;1.67;;
8161;SDS011;16778;48.154;15.094;2023-03-31T00:32:05;2.40;;;1.57;;
8161;SDS011;16778;48.154;15.094;2023-03-31T00:34:31;2.57;;;1.60;;
8161;SDS011;16778;48.154;15.094;2023-03-31T00:36:57;2.43;;;1.50;;
8161;SDS011;16778;48.154;15.094;2023-03-31T00:39:26;2.00;;;1.30;;
8161;SDS011;16778;48.154;15.094;2023-03-31T00:41:56;4.53;;;1.77;;
8161;SDS011;16778;48.154;15.094;2023-03-31T00:44:22;2.17;;;1.23;;
8161;SDS011;16778;48.154;15.094;2023-03-31T00:47:05;2.40;;;1.17;;
8161;SDS011;16778;48.154;15.094;2023-03-31T00:49:41;1.70;;;1.20;;
8161;SDS011;16778;48.154;15.094;2023-03-31T00:54:48;1.67;;;1.20;;
8161;SDS011;16778;48.154;15.094;2023-03-31T00:57:16;2.17;;;1.10;;
8161;SDS011;16778;48.154;15.094;2023-03-31T00:59:42;5.67;;;1.30;;
8161;SDS011;16778;48.154;15.094;2023-03-31T01:02:12;2.73;;;1.60;;
8161;SDS011;16778;48.154;15.094;2023-03-31T01:04:39;7.50;;;1.77;;
8161;SDS011;16778;48.154;15.094;2023-03-31T01:07:09;3.63;;;1.47;;
8161;SDS011;16778;48.154;15.094;2023-03-31T01:09:41;1.80;;;1.20;;
8161;SDS011;16778;48.154;15.094;2023-03-31T01:12:11;2.03;;;1.07;;
8161;SDS011;16778;48.154;15.094;2023-03-31T01:14:38;1.23;;;1.00;;
8161;SDS011;16778;48.154;15.094;2023-03-31T01:17:03;1.23;;;1.03;;
8161;SDS011;16778;48.154;15.094;2023-03-31T01:19:46;1.93;;;1.43;;
8161;SDS011;16778;48.154;15.094;2023-03-31T01:22:41;2.53;;;1.33;;
8161;SDS011;16778;48.154;15.094;2023-03-31T01:25:36;1.50;;;1.20;;
8161;SDS011;16778;48.154;15.094;2023-03-31T01:47:01;0.93;;;0.83;;
8161;SDS011;16778;48.154;15.094;2023-03-31T01:49:42;2.47;;;1.23;;
8161;SDS011;16778;48.154;15.094;2023-03-31T01:52:18;2.27;;;1.30;;
8161;SDS011;16778;48.154;15.094;2023-03-31T01:54:49;1.50;;;1.17;;
8161;SDS011;16778;48.154;15.094;2023-03-31T01:59:54;1.10;;;0.90;;
8161;SDS011;16778;48.154;15.094;2023-03-31T02:02:32;1.43;;;1.17;;
8161;SDS011;16778;48.154;15.094;2023-03-31T02:05:03;2.13;;;1.40;;
8161;SDS011;16778;48.154;15.094;2023-03-31T02:07:36;2.33;;;1.50;;
8161;SDS011;16778;48.154;15.094;2023-03-31T02:10:08;3.40;;;1.50;;
8161;SDS011;16778;48.154;15.094;2023-03-31T02:12:37;3.00;;;1.30;;
8161;SDS011;16778;48.154;15.094;2023-03-31T02:15:04;2.13;;;1.30;;
8161;SDS011;16778;48.154;15.094;2023-03-31T02:17:31;1.73;;;1.10;;
8161;SDS011;16778;48.154;15.094;2023-03-31T02:20:02;2.50;;;1.37;;
8161;SDS011;16778;48.154;15.094;2023-03-31T02:22:37;2.37;;;1.23;;
8161;SDS011;16778;48.154;15.094;2023-03-31T02:25:04;1.77;;;1.17;;
8161;SDS011;16778;48.154;15.094;2023-03-31T02:27:34;1.73;;;1.17;;
8161;SDS011;16778;48.154;15.094;2023-03-31T02:30:06;1.40;;;1.20;;
8161;SDS011;16778;48.154;15.094;2023-03-31T02:34:59;2.80;;;1.30;;
8161;SDS011;16778;48.154;15.094;2023-03-31T02:37:25;2.43;;;1.53;;
8161;SDS011;16778;48.154;15.094;2023-03-31T02:39:52;3.50;;;1.80;;
8161;SDS011;16778;48.154;15.094;2023-03-31T02:42:19;3.37;;;1.93;;
8161;SDS011;16778;48.154;15.094;2023-03-31T02:44:45;2.83;;;1.90;;
8161;SDS011;16778;48.154;15.094;2023-03-31T02:47:12;3.03;;;1.83;;
8161;SDS011;16778;48.154;15.094;2023-03-31T02:49:39;2.97;;;1.60;;
8161;SDS011;16778;48.154;15.094;2023-03-31T03:00:54;2.50;;;1.80;;
8161;SDS011;16778;48.154;15.094;2023-03-31T03:09:25;3.20;;;2.27;;
8161;SDS011;16778;48.154;15.094;2023-03-31T03:17:57;2.60;;;1.70;;
8161;SDS011;16778;48.154;15.094;2023-03-31T03:20:23;8.17;;;1.90;;
8161;SDS011;16778;48.154;15.094;2023-03-31T03:22:49;5.30;;;1.97;;
8161;SDS011;16778;48.154;15.094;2023-03-31T03:25:14;2.43;;;1.93;;
8161;SDS011;16778;48.154;15.094;2023-03-31T03:27:42;3.30;;;1.70;;
8161;SDS011;16778;48.154;15.094;2023-03-31T03:30:08;2.17;;;1.70;;
8161;SDS011;16778;48.154;15.094;2023-03-31T03:32:36;2.70;;;1.80;;
8161;SDS011;16778;48.154;15.094;2023-03-31T03:35:02;1.87;;;1.70;;
8161;SDS011;16778;48.154;15.094;2023-03-31T03:37:28;3.47;;;2.10;;
8161;SDS011;16778;48.154;15.094;2023-03-31T03:39:54;2.17;;;1.93;;
8161;SDS011;16778;48.154;15.094;2023-03-31T03:42:20;6.47;;;2.40;;
8161;SDS011;16778;48.154;15.094;2023-03-31T03:44:45;2.33;;;1.73;;
8161;SDS011;16778;48.154;15.094;2023-03-31T03:47:11;2.83;;;2.10;;
8161;SDS011;16778;48.154;15.094;2023-03-31T03:49:37;3.23;;;2.13;;
8161;SDS011;16778;48.154;15.094;2023-03-31T03:52:03;3.93;;;2.40;;
8161;SDS011;16778;48.154;15.094;2023-03-31T03:54:29;3.63;;;2.20;;
8161;SDS011;16778;48.154;15.094;2023-03-31T03:56:54;1.70;;;1.60;;
8161;SDS011;16778;48.154;15.094;2023-03-31T03:59:20;2.33;;;2.13;;
8161;SDS011;16778;48.154;15.094;2023-03-31T04:01:46;3.67;;;2.27;;
8161;SDS011;16778;48.154;15.094;2023-03-31T04:04:11;23.03;;;3.50;;
8161;SDS011;16778;48.154;15.094;2023-03-31T04:06:37;27.50;;;3.43;;
8161;SDS011;16778;48.154;15.094;2023-03-31T04:09:02;19.17;;;2.70;;
8161;SDS011;16778;48.154;15.094;2023-03-31T04:11:28;5.63;;;2.67;;
8161;SDS011;16778;48.154;15.094;2023-03-31T04:13:54;11.13;;;3.73;;
8161;SDS011;16778;48.154;15.094;2023-03-31T04:16:20;4.13;;;2.57;;
8161;SDS011;16778;48.154;15.094;2023-03-31T04:18:47;5.90;;;2.60;;
8161;SDS011;16778;48.154;15.094;2023-03-31T04:21:13;4.90;;;2.57;;
8161;SDS011;16778;48.154;15.094;2023-03-31T04:23:47;3.83;;;2.20;;
8161;SDS011;16778;48.154;15.094;2023-03-31T04:26:22;4.07;;;2.63;;
8161;SDS011;16778;48.154;15.094;2023-03-31T04:28:55;4.30;;;2.30;;
8161;SDS011;16778;48.154;15.094;2023-03-31T04:31:24;10.00;;;3.20;;
8161;SDS011;16778;48.154;15.094;2023-03-31T04:33:51;7.67;;;3.27;;
8161;SDS011;16778;48.154;15.094;2023-03-31T04:36:17;4.23;;;2.83;;
8161;SDS011;16778;48.154;15.094;2023-03-31T04:38:46;7.53;;;3.30;;
8161;SDS011;16778;48.154;15.094;2023-03-31T04:41:15;4.67;;;2.87;;
8161;SDS011;16778;48.154;15.094;2023-03-31T04:43:41;6.87;;;3.53;;
8161;SDS011;16778;48.154;15.094;2023-03-31T04:46:07;5.07;;;3.10;;
8161;SDS011;16778;48.154;15.094;2023-03-31T04:48:33;11.20;;;3.17;;
8161;SDS011;16778;48.154;15.094;2023-03-31T04:50:58;8.53;;;3.33;;
8161;SDS011;16778;48.154;15.094;2023-03-31T04:53:24;11.17;;;3.83;;
8161;SDS011;16778;48.154;15.094;2023-03-31T04:55:50;15.50;;;3.87;;
8161;SDS011;16778;48.154;15.094;2023-03-31T04:58:16;27.73;;;4.23;;
8161;SDS011;16778;48.154;15.094;2023-03-31T05:00:42;6.93;;;3.60;;
8161;SDS011;16778;48.154;15.094;2023-03-31T05:03:08;5.53;;;3.27;;
8161;SDS011;16778;48.154;15.094;2023-03-31T05:05:34;8.70;;;3.60;;
8161;SDS011;16778;48.154;15.094;2023-03-31T05:08:00;9.57;;;3.77;;
8161;SDS011;16778;48.154;15.094;2023-03-31T05:10:27;4.90;;;3.40;;
8161;SDS011;16778;48.154;15.094;2023-03-31T05:12:53;5.67;;;3.60;;
8161;SDS011;16778;48.154;15.094;2023-03-31T05:15:19;5.53;;;3.13;;
8161;SDS011;16778;48.154;15.094;2023-03-31T05:17:44;4.97;;;3.40;;
8161;SDS011;16778;48.154;15.094;2023-03-31T05:20:10;8.23;;;3.73;;
8161;SDS011;16778;48.154;15.094;2023-03-31T05:22:37;6.17;;;3.43;;
8161;SDS011;16778;48.154;15.094;2023-03-31T05:25:04;5.60;;;3.67;;
8161;SDS011;16778;48.154;15.094;2023-03-31T05:27:31;6.27;;;3.90;;
8161;SDS011;16778;48.154;15.094;2023-03-31T05:29:58;8.67;;;4.13;;
8161;SDS011;16778;48.154;15.094;2023-03-31T05:32:24;9.57;;;4.63;;
8161;SDS011;16778;48.154;15.094;2023-03-31T05:34:50;9.97;;;4.40;;
8161;SDS011;16778;48.154;15.094;2023-03-31T05:37:17;8.90;;;4.50;;
8161;SDS011;16778;48.154;15.094;2023-03-31T05:39:44;7.23;;;4.47;;
8161;SDS011;16778;48.154;15.094;2023-03-31T05:42:10;16.57;;;5.70;;
8161;SDS011;16778;48.154;15.094;2023-03-31T05:44:36;16.00;;;6.60;;
8161;SDS011;16778;48.154;15.094;2023-03-31T05:47:01;16.47;;;5.30;;
8161;SDS011;16778;48.154;15.094;2023-03-31T05:49:27;15.27;;;5.53;;
8161;SDS011;16778;48.154;15.094;2023-03-31T05:51:53;15.67;;;7.40;;
8161;SDS011;16778;48.154;15.094;2023-03-31T05:54:20;16.37;;;7.37;;
8161;SDS011;16778;48.154;15.094;2023-03-31T05:56:46;35.50;;;6.87;;
8161;SDS011;16778;48.154;15.094;2023-03-31T05:59:12;50.40;;;7.47;;
8161;SDS011;16778;48.154;15.094;2023-03-31T06:01:38;42.47;;;5.83;;
8161;SDS011;16778;48.154;15.094;2023-03-31T06:04:04;33.07;;;6.13;;
8161;SDS011;16778;48.154;15.094;2023-03-31T06:06:29;32.73;;;7.37;;
8161;SDS011;16778;48.154;15.094;2023-03-31T06:08:57;42.03;;;6.60;;
8161;SDS011;16778;48.154;15.094;2023-03-31T06:11:22;30.03;;;5.90;;
8161;SDS011;16778;48.154;15.094;2023-03-31T06:13:48;38.90;;;5.87;;
8161;SDS011;16778;48.154;15.094;2023-03-31T06:16:14;48.90;;;5.57;;
8161;SDS011;16778;48.154;15.094;2023-03-31T06:18:41;39.93;;;6.10;;
8161;SDS011;16778;48.154;15.094;2023-03-31T06:21:09;30.00;;;6.83;;
8161;SDS011;16778;48.154;15.094;2023-03-31T06:23:36;29.07;;;6.90;;
8161;SDS011;16778;48.154;15.094;2023-03-31T06:26:03;19.20;;;7.20;;
8161;SDS011;16778;48.154;15.094;2023-03-31T06:28:31;20.87;;;7.10;;
8161;SDS011;16778;48.154;15.094;2023-03-31T06:31:04;13.03;;;6.87;;
8161;SDS011;16778;48.154;15.094;2023-03-31T06:33:31;17.07;;;6.97;;
8161;SDS011;16778;48.154;15.094;2023-03-31T06:35:57;13.20;;;6.10;;
8161;SDS011;16778;48.154;15.094;2023-03-31T06:38:25;24.33;;;7.10;;
8161;SDS011;16778;48.154;15.094;2023-03-31T06:40:51;12.37;;;6.60;;
8161;SDS011;16778;48.154;15.094;2023-03-31T06:43:17;13.00;;;7.33;;
8161;SDS011;16778;48.154;15.094;2023-03-31T06:45:43;12.90;;;7.37;;
8161;SDS011;16778;48.154;15.094;2023-03-31T06:48:09;11.27;;;6.47;;
8161;SDS011;16778;48.154;15.094;2023-03-31T06:50:38;10.60;;;6.50;;
8161;SDS011;16778;48.154;15.094;2023-03-31T06:53:05;8.90;;;5.23;;
8161;SDS011;16778;48.154;15.094;2023-03-31T06:55:31;9.33;;;5.00;;
8161;SDS011;16778;48.154;15.094;2023-03-31T06:57:58;9.87;;;5.73;;
8161;SDS011;16778;48.154;15.094;2023-03-31T07:00:24;10.23;;;5.57;;
8161;SDS011;16778;48.154;15.094;2023-03-31T07:02:51;9.10;;;5.70;;
8161;SDS011;16778;48.154;15.094;2023-03-31T07:05:19;10.57;;;5.77;;
8161;SDS011;16778;48.154;15.094;2023-03-31T07:07:51;8.00;;;5.53;;
8161;SDS011;16778;48.154;15.094;2023-03-31T07:10:17;12.13;;;7.77;;
8161;SDS011;16778;48.154;15.094;2023-03-31T07:12:43;11.17;;;7.90;;
8161;SDS011;16778;48.154;15.094;2023-03-31T07:15:09;11.57;;;8.33;;
8161;SDS011;16778;48.154;15.094;2023-03-31T07:17:35;14.73;;;8.63;;
8161;SDS011;16778;48.154;15.094;2023-03-31T07:20:01;15.33;;;8.67;;
8161;SDS011;16778;48.154;15.094;2023-03-31T07:22:28;16.90;;;8.87;;
8161;SDS011;16778;48.154;15.094;2023-03-31T07:24:54;15.63;;;8.50;;
8161;SDS011;16778;48.154;15.094;2023-03-31T07:27:20;15.80;;;8.83;;
8161;SDS011;16778;48.154;15.094;2023-03-31T07:29:46;12.17;;;7.67;;
8161;SDS011;16778;48.154;15.094;2023-03-31T07:32:11;9.73;;;7.63;;
8161;SDS011;16778;48.154;15.094;2023-03-31T07:34:37;12.00;;;8.33;;
8161;SDS011;16778;48.154;15.094;2023-03-31T07:37:04;11.00;;;7.47;;
8161;SDS011;16778;48.154;15.094;2023-03-31T07:39:30;13.10;;;7.90;;
8161;SDS011;16778;48.154;15.094;2023-03-31T07:41:56;10.27;;;7.37;;
8161;SDS011;16778;48.154;15.094;2023-03-31T07:44:22;10.53;;;7.90;;
8161;SDS011;16778;48.154;15.094;2023-03-31T07:46:48;10.37;;;7.27;;
8161;SDS011;16778;48.154;15.094;2023-03-31T07:49:13;10.57;;;6.93;;
8161;SDS011;16778;48.154;15.094;2023-03-31T07:51:40;31.73;;;12.70;;
8161;SDS011;16778;48.154;15.094;2023-03-31T07:54:06;14.93;;;7.47;;
8161;SDS011;16778;48.154;15.094;2023-03-31T07:56:31;11.50;;;6.60;;
8161;SDS011;16778;48.154;15.094;2023-03-31T07:58:57;13.40;;;6.63;;
8161;SDS011;16778;48.154;15.094;2023-03-31T08:01:23;10.13;;;6.77;;
8161;SDS011;16778;48.154;15.094;2023-03-31T08:03:52;9.33;;;6.67;;
8161;SDS011;16778;48.154;15.094;2023-03-31T08:06:20;15.33;;;7.47;;
8161;SDS011;16778;48.154;15.094;2023-03-31T08:08:47;9.53;;;6.83;;
8161;SDS011;16778;48.154;15.094;2023-03-31T08:11:13;12.13;;;7.13;;
8161;SDS011;16778;48.154;15.094;2023-03-31T08:13:39;8.60;;;5.93;;
8161;SDS011;16778;48.154;15.094;2023-03-31T08:16:05;11.00;;;6.10;;
8161;SDS011;16778;48.154;15.094;2023-03-31T08:18:30;8.70;;;5.80;;
8161;SDS011;16778;48.154;15.094;2023-03-31T08:20:56;9.70;;;4.27;;
8161;SDS011;16778;48.154;15.094;2023-03-31T08:23:22;5.97;;;3.47;;
8161;SDS011;16778;48.154;15.094;2023-03-31T08:25:47;7.10;;;3.67;;
8161;SDS011;16778;48.154;15.094;2023-03-31T08:28:13;4.53;;;3.50;;
8161;SDS011;16778;48.154;15.094;2023-03-31T08:30:39;9.80;;;3.90;;
8161;SDS011;16778;48.154;15.094;2023-03-31T08:33:05;5.90;;;3.70;;
8161;SDS011;16778;48.154;15.094;2023-03-31T08:35:32;5.47;;;3.53;;
8161;SDS011;16778;48.154;15.094;2023-03-31T08:38:00;6.07;;;3.83;;
8161;SDS011;16778;48.154;15.094;2023-03-31T08:40:26;5.77;;;3.80;;
8161;SDS011;16778;48.154;15.094;2023-03-31T08:42:57;6.87;;;4.00;;
8161;SDS011;16778;48.154;15.094;2023-03-31T08:45:44;5.97;;;4.30;;
8161;SDS011;16778;48.154;15.094;2023-03-31T08:48:21;6.77;;;3.83;;
8161;SDS011;16778;48.154;15.094;2023-03-31T08:50:51;6.40;;;4.00;;
8161;SDS011;16778;48.154;15.094;2023-03-31T08:56:45;6.10;;;4.13;;
8161;SDS011;16778;48.154;15.094;2023-03-31T09:01:57;6.80;;;3.60;;
8161;SDS011;16778;48.154;15.094;2023-03-31T09:12:09;6.47;;;4.33;;
8161;SDS011;16778;48.154;15.094;2023-03-31T09:14:40;4.60;;;3.60;;
8161;SDS011;16778;48.154;15.094;2023-03-31T09:17:23;9.00;;;4.37;;
8161;SDS011;16778;48.154;15.094;2023-03-31T09:20:10;7.70;;;5.23;;
8161;SDS011;16778;48.154;15.094;2023-03-31T09:22:42;7.50;;;5.27;;
8161;SDS011;16778;48.154;15.094;2023-03-31T09:25:22;8.20;;;6.47;;
8161;SDS011;16778;48.154;15.094;2023-03-31T09:27:55;7.93;;;5.03;;
8161;SDS011;16778;48.154;15.094;2023-03-31T09:30:24;10.33;;;6.07;;
8161;SDS011;16778;48.154;15.094;2023-03-31T09:35:44;15.33;;;9.63;;
8161;SDS011;16778;48.154;15.094;2023-03-31T09:38:10;9.37;;;4.70;;
8161;SDS011;16778;48.154;15.094;2023-03-31T09:40:37;5.83;;;4.83;;
8161;SDS011;16778;48.154;15.094;2023-03-31T09:43:07;7.70;;;5.90;;
8161;SDS011;16778;48.154;15.094;2023-03-31T09:45:36;9.97;;;5.83;;
8161;SDS011;16778;48.154;15.094;2023-03-31T09:48:03;8.40;;;4.57;;
8161;SDS011;16778;48.154;15.094;2023-03-31T09:50:35;8.33;;;4.83;;
8161;SDS011;16778;48.154;15.094;2023-03-31T09:53:21;12.27;;;5.60;;
8161;SDS011;16778;48.154;15.094;2023-03-31T09:55:53;8.77;;;5.63;;
8161;SDS011;16778;48.154;15.094;2023-03-31T09:58:22;13.53;;;5.97;;
8161;SDS011;16778;48.154;15.094;2023-03-31T10:01:01;6.43;;;3.87;;
8161;SDS011;16778;48.154;15.094;2023-03-31T10:03:29;7.70;;;5.00;;
8161;SDS011;16778;48.154;15.094;2023-03-31T10:06:00;8.43;;;4.40;;
8161;SDS011;16778;48.154;15.094;2023-03-31T10:08:37;8.83;;;4.53;;
8161;SDS011;16778;48.154;15.094;2023-03-31T10:11:19;8.93;;;4.70;;
8161;SDS011;16778;48.154;15.094;2023-03-31T10:13:58;6.93;;;4.20;;
8161;SDS011;16778;48.154;15.094;2023-03-31T10:16:58;7.53;;;3.50;;
8161;SDS011;16778;48.154;15.094;2023-03-31T10:19:31;6.70;;;3.13;;
8161;SDS011;16778;48.154;15.094;2023-03-31T10:24:43;3.97;;;2.87;;
8161;SDS011;16778;48.154;15.094;2023-03-31T10:29:58;3.00;;;2.03;;
8161;SDS011;16778;48.154;15.094;2023-03-31T10:32:25;3.33;;;2.13;;
8161;SDS011;16778;48.154;15.094;2023-03-31T10:34:53;4.50;;;3.00;;
8161;SDS011;16778;48.154;15.094;2023-03-31T10:37:24;3.53;;;2.20;;
8161;SDS011;16778;48.154;15.094;2023-03-31T10:40:04;4.07;;;2.13;;
8161;SDS011;16778;48.154;15.094;2023-03-31T10:42:37;5.47;;;2.37;;
8161;SDS011;16778;48.154;15.094;2023-03-31T10:47:47;4.10;;;2.23;;
8161;SDS011;16778;48.154;15.094;2023-03-31T10:50:14;7.93;;;2.43;;
8161;SDS011;16778;48.154;15.094;2023-03-31T10:52:43;6.43;;;2.80;;
8161;SDS011;16778;48.154;15.094;2023-03-31T10:55:16;4.17;;;2.03;;
8161;SDS011;16778;48.154;15.094;2023-03-31T10:57:52;2.27;;;1.50;;
8161;SDS011;16778;48.154;15.094;2023-03-31T11:00:25;3.43;;;2.07;;
8161;SDS011;16778;48.154;15.094;2023-03-31T11:03:36;3.20;;;1.57;;
8161;SDS011;16778;48.154;15.094;2023-03-31T11:06:42;4.70;;;2.00;;
8161;SDS011;16778;48.154;15.094;2023-03-31T11:08:59;2.93;;;1.73;;
8161;SDS011;16778;48.154;15.094;2023-03-31T11:14:34;6.43;;;2.10;;
8161;SDS011;16778;48.154;15.094;2023-03-31T11:31:05;7.87;;;2.50;;
8161;SDS011;16778;48.154;15.094;2023-03-31T11:34:04;4.43;;;1.77;;
8161;SDS011;16778;48.154;15.094;2023-03-31T11:42:25;5.30;;;2.20;;
8161;SDS011;16778;48.154;15.094;2023-03-31T11:44:53;3.40;;;2.17;;
8161;SDS011;16778;48.154;15.094;2023-03-31T11:47:23;8.57;;;2.63;;
8161;SDS011;16778;48.154;15.094;2023-03-31T11:50:34;8.07;;;2.60;;
8161;SDS011;16778;48.154;15.094;2023-03-31T11:52:49;4.00;;;2.30;;
8161;SDS011;16778;48.154;15.094;2023-03-31T11:55:21;3.70;;;1.93;;
8161;SDS011;16778;48.154;15.094;2023-03-31T11:57:51;4.10;;;2.20;;
8161;SDS011;16778;48.154;15.094;2023-03-31T12:00:18;4.60;;;2.03;;
8161;SDS011;16778;48.154;15.094;2023-03-31T12:05:35;5.57;;;2.40;;
8161;SDS011;16778;48.154;15.094;2023-03-31T12:08:11;4.20;;;2.13;;
8161;SDS011;16778;48.154;15.094;2023-03-31T12:10:54;3.47;;;2.20;;
8161;SDS011;16778;48.154;15.094;2023-03-31T12:16:39;4.93;;;2.23;;
8161;SDS011;16778;48.154;15.094;2023-03-31T12:25:03;2.60;;;1.77;;
8161;SDS011;16778;48.154;15.094;2023-03-31T12:32:37;7.83;;;2.50;;
8161;SDS011;16778;48.154;15.094;2023-03-31T12:35:06;2.33;;;1.50;;
8161;SDS011;16778;48.154;15.094;2023-03-31T12:51:09;3.97;;;2.00;;
8161;SDS011;16778;48.154;15.094;2023-03-31T12:54:02;2.80;;;1.80;;
8161;SDS011;16778;48.154;15.094;2023-03-31T12:59:35;4.90;;;1.90;;
8161;SDS011;16778;48.154;15.094;2023-03-31T13:04:33;2.73;;;1.97;;
8161;SDS011;16778;48.154;15.094;2023-03-31T13:07:01;3.37;;;1.80;;
8161;SDS011;16778;48.154;15.094;2023-03-31T13:12:21;2.93;;;2.07;;
8161;SDS011;16778;48.154;15.094;2023-03-31T13:14:50;2.50;;;1.47;;
8161;SDS011;16778;48.154;15.094;2023-03-31T13:19:51;3.37;;;1.87;;
8161;SDS011;16778;48.154;15.094;2023-03-31T13:30:47;4.67;;;1.40;;
8161;SDS011;16778;48.154;15.094;2023-03-31T13:33:26;2.50;;;1.80;;
8161;SDS011;16778;48.154;15.094;2023-03-31T13:35:56;3.60;;;2.03;;
8161;SDS011;16778;48.154;15.094;2023-03-31T13:55:56;3.43;;;1.43;;
8161;SDS011;16778;48.154;15.094;2023-03-31T14:07:17;2.67;;;1.20;;
8161;SDS011;16778;48.154;15.094;2023-03-31T14:09:45;3.03;;;0.90;;
8161;SDS011;16778;48.154;15.094;2023-03-31T14:15:02;3.10;;;1.20;;
8161;SDS011;16778;48.154;15.094;2023-03-31T14:17:32;1.13;;;0.63;;
8161;SDS011;16778;48.154;15.094;2023-03-31T14:37:02;0.47;;;0.47;;
8161;SDS011;16778;48.154;15.094;2023-03-31T14:39:30;1.47;;;0.90;;
8161;SDS011;16778;48.154;15.094;2023-03-31T14:41:58;0.83;;;0.60;;
8161;SDS011;16778;48.154;15.094;2023-03-31T14:44:27;4.03;;;1.00;;
8161;SDS011;16778;48.154;15.094;2023-03-31T14:46:55;1.83;;;0.93;;
8161;SDS011;16778;48.154;15.094;2023-03-31T14:49:32;1.53;;;0.80;;
8161;SDS011;16778;48.154;15.094;2023-03-31T14:52:00;5.17;;;1.50;;
8161;SDS011;16778;48.154;15.094;2023-03-31T14:54:32;4.40;;;1.00;;
8161;SDS011;16778;48.154;15.094;2023-03-31T14:57:01;1.60;;;0.90;;
8161;SDS011;16778;48.154;15.094;2023-03-31T14:59:30;1.27;;;0.80;;
8161;SDS011;16778;48.154;15.094;2023-03-31T15:01:58;3.30;;;0.83;;
8161;SDS011;16778;48.154;15.094;2023-03-31T15:04:30;2.67;;;1.40;;
8161;SDS011;16778;48.154;15.094;2023-03-31T15:07:01;3.87;;;1.20;;
8161;SDS011;16778;48.154;15.094;2023-03-31T15:09:29;3.60;;;1.50;;
8161;SDS011;16778;48.154;15.094;2023-03-31T15:11:58;12.73;;;1.37;;
8161;SDS011;16778;48.154;15.094;2023-03-31T15:14:35;1.57;;;0.90;;
8161;SDS011;16778;48.154;15.094;2023-03-31T15:17:04;1.57;;;1.20;;
8161;SDS011;16778;48.154;15.094;2023-03-31T15:19:32;2.80;;;1.40;;
8161;SDS011;16778;48.154;15.094;2023-03-31T15:22:01;11.33;;;5.90;;
8161;SDS011;16778;48.154;15.094;2023-03-31T15:24:38;6.40;;;3.27;;
8161;SDS011;16778;48.154;15.094;2023-03-31T15:29:37;4.10;;;1.60;;
8161;SDS011;16778;48.154;15.094;2023-03-31T15:32:06;2.17;;;1.23;;
8161;SDS011;16778;48.154;15.094;2023-03-31T15:34:37;4.20;;;1.17;;
8161;SDS011;16778;48.154;15.094;2023-03-31T15:37:05;7.30;;;3.37;;
8161;SDS011;16778;48.154;15.094;2023-03-31T15:39:31;5.43;;;2.53;;
8161;SDS011;16778;48.154;15.094;2023-03-31T15:41:57;4.00;;;2.00;;
8161;SDS011;16778;48.154;15.094;2023-03-31T15:44:27;4.77;;;1.93;;
8161;SDS011;16778;48.154;15.094;2023-03-31T15:47:22;3.43;;;1.83;;
8161;SDS011;16778;48.154;15.094;2023-03-31T15:52:35;4.70;;;1.97;;
8161;SDS011;16778;48.154;15.094;2023-03-31T15:57:55;4.23;;;1.73;;
8161;SDS011;16778;48.154;15.094;2023-03-31T16:03:04;3.00;;;1.43;;
8161;SDS011;16778;48.154;15.094;2023-03-31T16:05:54;3.83;;;1.67;;
8161;SDS011;16778;48.154;15.094;2023-03-31T16:11:00;7.67;;;3.30;;
8161;SDS011;16778;48.154;15.094;2023-03-31T16:13:29;6.93;;;3.20;;
8161;SDS011;16778;48.154;15.094;2023-03-31T16:15:55;8.33;;;2.80;;
8161;SDS011;16778;48.154;15.094;2023-03-31T16:20:56;5.67;;;2.50;;
8161;SDS011;16778;48.154;15.094;2023-03-31T16:23:24;4.73;;;2.37;;
8161;SDS011;16778;48.154;15.094;2023-03-31T16:25:58;5.03;;;2.57;;
8161;SDS011;16778;48.154;15.094;2023-03-31T16:28:25;3.70;;;2.53;;
8161;SDS011;16778;48.154;15.094;2023-03-31T16:30:55;5.87;;;3.00;;
8161;SDS011;16778;48.154;15.094;2023-03-31T16:33:25;3.27;;;1.93;;
8161;SDS011;16778;48.154;15.094;2023-03-31T16:35:52;2.80;;;1.77;;
8161;SDS011;16778;48.154;15.094;2023-03-31T16:38:23;4.30;;;2.10;;
8161;SDS011;16778;48.154;15.094;2023-03-31T16:40:54;4.77;;;2.20;;
8161;SDS011;16778;48.154;15.094;2023-03-31T16:43:25;4.10;;;2.40;;
8161;SDS011;16778;48.154;15.094;2023-03-31T16:45:52;5.50;;;2.60;;
8161;SDS011;16778;48.154;15.094;2023-03-31T16:48:20;4.70;;;2.80;;
8161;SDS011;16778;48.154;15.094;2023-03-31T16:50:47;2.90;;;2.00;;
8161;SDS011;16778;48.154;15.094;2023-03-31T16:53:16;1.30;;;0.70;;
8161;SDS011;16778;48.154;15.094;2023-03-31T16:55:43;4.40;;;1.03;;
8161;SDS011;16778;48.154;15.094;2023-03-31T16:58:09;2.90;;;0.90;;
8161;SDS011;16778;48.154;15.094;2023-03-31T17:00:36;1.50;;;0.70;;
8161;SDS011;16778;48.154;15.094;2023-03-31T17:03:04;0.20;;;0.20;;
8161;SDS011;16778;48.154;15.094;2023-03-31T17:05:30;2.07;;;0.80;;
8161;SDS011;16778;48.154;15.094;2023-03-31T17:07:58;2.13;;;1.10;;
8161;SDS011;16778;48.154;15.094;2023-03-31T17:10:24;1.97;;;0.90;;
8161;SDS011;16778;48.154;15.094;2023-03-31T17:12:50;3.27;;;1.07;;
8161;SDS011;16778;48.154;15.094;2023-03-31T17:15:16;1.93;;;0.80;;
8161;SDS011;16778;48.154;15.094;2023-03-31T17:17:42;1.57;;;0.80;;
8161;SDS011;16778;48.154;15.094;2023-03-31T17:20:08;4.00;;;0.87;;
8161;SDS011;16778;48.154;15.094;2023-03-31T17:22:34;3.13;;;0.73;;
8161;SDS011;16778;48.154;15.094;2023-03-31T17:25:00;1.83;;;0.90;;
8161;SDS011;16778;48.154;15.094;2023-03-31T17:27:27;1.00;;;0.80;;
8161;SDS011;16778;48.154;15.094;2023-03-31T17:29:54;1.27;;;0.90;;
8161;SDS011;16778;48.154;15.094;2023-03-31T17:32:20;1.37;;;0.70;;
8161;SDS011;16778;48.154;15.094;2023-03-31T17:34:46;2.03;;;1.00;;
8161;SDS011;16778;48.154;15.094;2023-03-31T17:37:16;2.37;;;0.97;;
8161;SDS011;16778;48.154;15.094;2023-03-31T17:39:42;5.80;;;1.27;;
8161;SDS011;16778;48.154;15.094;2023-03-31T17:42:09;1.23;;;1.00;;
8161;SDS011;16778;48.154;15.094;2023-03-31T17:44:35;1.60;;;1.00;;
8161;SDS011;16778;48.154;15.094;2023-03-31T17:47:01;1.53;;;1.03;;
8161;SDS011;16778;48.154;15.094;2023-03-31T17:49:27;3.33;;;1.10;;
8161;SDS011;16778;48.154;15.094;2023-03-31T17:51:52;1.83;;;0.97;;
8161;SDS011;16778;48.154;15.094;2023-03-31T17:54:18;0.93;;;0.87;;
8161;SDS011;16778;48.154;15.094;2023-03-31T17:56:44;3.20;;;0.90;;
8161;SDS011;16778;48.154;15.094;2023-03-31T17:59:13;3.90;;;1.17;;
8161;SDS011;16778;48.154;15.094;2023-03-31T18:01:39;2.43;;;1.20;;
8161;SDS011;16778;48.154;15.094;2023-03-31T18:04:04;2.13;;;1.50;;
8161;SDS011;16778;48.154;15.094;2023-03-31T18:06:30;3.43;;;1.40;;
8161;SDS011;16778;48.154;15.094;2023-03-31T18:08:57;2.30;;;1.50;;
8161;SDS011;16778;48.154;15.094;2023-03-31T18:11:22;2.27;;;1.13;;
8161;SDS011;16778;48.154;15.094;2023-03-31T18:13:48;1.80;;;1.20;;
8161;SDS011;16778;48.154;15.094;2023-03-31T18:16:15;1.27;;;0.97;;
8161;SDS011;16778;48.154;15.094;2023-03-31T18:18:41;3.17;;;1.30;;
8161;SDS011;16778;48.154;15.094;2023-03-31T18:21:08;2.13;;;0.97;;
8161;SDS011;16778;48.154;15.094;2023-03-31T18:23:35;3.30;;;1.50;;